Time;durP1;ratioP1;P1;durP2;ratioP2;P2;SDS_P1;SDS_P2;PMS_P1;PMS_P2;Temp;Humidity;BMP_temperature;BMP_pressure;BME280_temperature;BME280_humidity;BME280_pressure;Samples;Min_cycle;Max_cycle;Signal;HPM_P1;HPM_P2
2024/02/06 00:00:43;;;;;;;13.95;8.45;;;10.00;99.90;;;;;;5078041;28;20249;-73
2024/02/06 00:03:10;;;;;;;16.35;9.02;;;10.10;99.90;;;;;;5077888;28;20229;-76
2024/02/06 00:05:37;;;;;;;9.05;8.25;;;10.20;99.90;;;;;;5087804;28;20536;-73
2024/02/06 00:08:05;;;;;;;12.15;7.78;;;10.10;99.90;;;;;;5078322;28;20200;-75
2024/02/06 00:10:33;;;;;;;11.52;8.15;;;10.10;99.90;;;;;;5073015;28;20206;-73
2024/02/06 00:13:00;;;;;;;11.65;8.57;;;10.10;99.90;;;;;;5081455;28;20301;-71
2024/02/06 00:15:26;;;;;;;13.98;8.35;;;10.10;99.90;;;;;;5075427;28;20239;-74
2024/02/06 00:17:53;;;;;;;12.00;8.43;;;10.10;99.90;;;;;;5085630;28;20230;-71
2024/02/06 00:20:22;;;;;;;12.18;9.75;;;10.10;99.90;;;;;;5093104;28;20293;-73
2024/02/06 00:22:49;;;;;;;12.98;8.18;;;10.10;99.90;;;;;;5077639;28;20281;-73
2024/02/06 00:25:16;;;;;;;10.52;8.57;;;10.10;99.90;;;;;;5080655;28;20558;-72
2024/02/06 00:27:44;;;;;;;18.27;9.77;;;10.10;99.90;;;;;;5075662;28;20290;-75
2024/02/06 00:30:12;;;;;;;9.85;7.35;;;10.10;99.90;;;;;;5072788;28;20195;-72
2024/02/06 00:32:39;;;;;;;13.90;8.77;;;10.10;99.90;;;;;;5072570;28;20231;-72
2024/02/06 00:35:07;;;;;;;11.27;10.00;;;10.10;99.90;;;;;;5077108;28;20218;-73
2024/02/06 00:37:34;;;;;;;13.68;8.70;;;10.10;99.90;;;;;;5080412;28;20722;-75
2024/02/06 00:40:01;;;;;;;12.27;8.27;;;10.10;99.90;;;;;;5087355;28;20243;-74
2024/02/06 00:42:28;;;;;;;11.32;8.60;;;10.20;99.90;;;;;;5072810;28;20254;-75
2024/02/06 00:44:56;;;;;;;15.63;9.85;;;10.20;99.90;;;;;;5084942;28;20215;-74
2024/02/06 00:47:23;;;;;;;10.55;7.45;;;10.20;99.90;;;;;;5075018;28;20639;-72
2024/02/06 00:49:50;;;;;;;13.20;8.35;;;10.10;99.90;;;;;;5074616;28;20287;-75
2024/02/06 00:52:17;;;;;;;20.27;8.48;;;10.20;99.90;;;;;;5088362;28;20226;-75
2024/02/06 00:54:44;;;;;;;13.55;9.25;;;10.20;99.90;;;;;;5087147;28;20225;-72
2024/02/06 00:57:11;;;;;;;12.35;8.50;;;10.10;99.90;;;;;;5077051;28;20666;-73
2024/02/06 00:59:38;;;;;;;12.95;8.23;;;10.10;99.90;;;;;;5080350;28;20244;-72
2024/02/06 01:02:06;;;;;;;13.07;8.32;;;10.20;99.90;;;;;;5081296;28;20311;-71
2024/02/06 01:04:33;;;;;;;15.30;8.93;;;10.20;99.90;;;;;;5077311;28;21505;-75
2024/02/06 01:07:00;;;;;;;10.32;7.18;;;10.20;99.90;;;;;;5083209;28;20202;-73
2024/02/06 01:09:27;;;;;;;12.73;8.07;;;10.20;99.90;;;;;;5085556;28;20297;-76
2024/02/06 01:11:54;;;;;;;10.40;7.00;;;10.20;99.90;;;;;;5086120;28;20199;-74
2024/02/06 01:14:21;;;;;;;12.00;8.27;;;10.30;99.90;;;;;;5086712;28;20293;-73
2024/02/06 01:16:48;;;;;;;13.43;7.50;;;10.20;99.90;;;;;;5082481;28;20235;-75
2024/02/06 01:19:16;;;;;;;14.70;7.80;;;10.30;99.90;;;;;;5072194;28;20717;-75
2024/02/06 01:21:43;;;;;;;18.13;8.18;;;10.30;99.90;;;;;;5082328;28;20225;-74
2024/02/06 01:24:10;;;;;;;13.80;6.70;;;10.30;99.90;;;;;;5085334;28;20205;-74
2024/02/06 01:26:37;;;;;;;12.27;7.28;;;10.30;99.90;;;;;;5086450;28;20203;-74
2024/02/06 01:29:04;;;;;;;8.13;7.22;;;10.30;99.90;;;;;;5076991;28;20196;-72
2024/02/06 01:31:31;;;;;;;12.52;7.72;;;10.30;99.90;;;;;;5082872;28;20290;-75
2024/02/06 01:33:58;;;;;;;13.20;8.35;;;10.30;99.90;;;;;;5075200;28;20291;-76
2024/02/06 01:36:27;;;;;;;12.95;6.93;;;10.20;99.90;;;;;;5083361;28;20253;-74
2024/02/06 01:38:54;;;;;;;14.40;6.93;;;10.20;99.90;;;;;;5075344;28;20207;-72
2024/02/06 01:41:21;;;;;;;12.07;7.65;;;10.20;99.90;;;;;;5077285;28;20269;-73
2024/02/06 01:43:48;;;;;;;13.10;8.60;;;10.30;99.90;;;;;;5083839;28;20283;-76
2024/02/06 01:46:15;;;;;;;10.85;8.93;;;10.20;99.90;;;;;;5077978;28;20290;-75
2024/02/06 01:48:42;;;;;;;15.40;8.20;;;10.20;99.90;;;;;;5087744;28;20738;-74
2024/02/06 01:51:10;;;;;;;15.75;8.55;;;10.30;99.90;;;;;;5089313;28;20195;-74
2024/02/06 01:53:39;;;;;;;12.43;7.78;;;10.20;99.90;;;;;;5079911;28;20690;-76
2024/02/06 01:56:06;;;;;;;22.63;10.57;;;10.30;99.90;;;;;;5076640;28;20544;-74
2024/02/06 01:58:34;;;;;;;10.73;7.63;;;10.20;99.90;;;;;;5074584;28;20249;-75
2024/02/06 02:01:02;;;;;;;11.77;8.10;;;10.20;99.90;;;;;;5092754;28;20291;-74
2024/02/06 02:03:31;;;;;;;8.90;7.40;;;10.20;99.90;;;;;;5088414;28;20759;-72
2024/02/06 02:05:58;;;;;;;11.60;9.50;;;10.30;99.90;;;;;;5091420;28;20261;-75
2024/02/06 02:08:27;;;;;;;16.33;8.55;;;10.20;99.90;;;;;;5079582;28;20204;-76
2024/02/06 02:10:56;;;;;;;10.68;8.23;;;10.20;99.90;;;;;;5077114;28;20280;-75
2024/02/06 02:13:23;;;;;;;13.45;7.78;;;10.20;99.90;;;;;;5082510;28;20231;-74
2024/02/06 02:15:50;;;;;;;10.20;8.45;;;10.20;99.90;;;;;;5086556;28;20242;-76
2024/02/06 02:18:17;;;;;;;13.18;8.80;;;10.20;99.90;;;;;;5083987;28;20264;-72
2024/02/06 02:20:44;;;;;;;14.38;8.85;;;10.30;99.90;;;;;;5085376;28;20285;-73
2024/02/06 02:23:12;;;;;;;17.40;9.68;;;10.20;99.90;;;;;;5078120;28;20305;-74
2024/02/06 02:25:39;;;;;;;17.92;10.00;;;10.30;99.90;;;;;;5076085;28;20245;-74
2024/02/06 02:28:07;;;;;;;16.98;9.57;;;10.30;99.90;;;;;;5079050;28;20199;-73
2024/02/06 02:30:35;;;;;;;11.75;8.82;;;10.30;99.90;;;;;;5080637;28;20199;-74
2024/02/06 02:33:03;;;;;;;12.68;8.40;;;10.20;99.90;;;;;;5085340;28;20285;-76
2024/02/06 02:35:30;;;;;;;19.27;8.65;;;10.20;99.90;;;;;;5076505;28;20650;-75
2024/02/06 02:37:57;;;;;;;15.95;8.95;;;10.20;99.90;;;;;;5086040;28;20199;-75
2024/02/06 02:40:26;;;;;;;11.75;8.57;;;10.20;99.90;;;;;;5090220;28;20709;-74
2024/02/06 02:42:53;;;;;;;13.48;9.57;;;10.20;99.90;;;;;;5092321;28;20250;-72
2024/02/06 02:45:20;;;;;;;14.93;8.43;;;10.30;99.90;;;;;;5077849;28;20202;-72
2024/02/06 02:47:48;;;;;;;12.70;8.52;;;10.30;99.90;;;;;;5080889;28;20206;-74
2024/02/06 02:50:15;;;;;;;15.15;9.90;;;10.30;99.90;;;;;;5076204;28;20207;-75
2024/02/06 02:52:42;;;;;;;11.10;8.05;;;10.30;99.90;;;;;;5074738;28;20255;-74
2024/02/06 02:55:09;;;;;;;11.43;7.32;;;10.30;99.90;;;;;;5084189;28;20551;-75
2024/02/06 02:57:37;;;;;;;11.52;7.65;;;10.30;99.90;;;;;;5082131;28;20631;-76
2024/02/06 03:00:06;;;;;;;14.10;9.20;;;10.30;99.90;;;;;;5078929;28;20241;-75
2024/02/06 03:02:33;;;;;;;12.10;8.23;;;10.40;99.90;;;;;;5076156;28;20223;-74
2024/02/06 03:05:00;;;;;;;12.55;7.60;;;10.40;99.90;;;;;;5076730;28;20238;-75
2024/02/06 03:07:27;;;;;;;18.95;9.10;;;10.40;99.90;;;;;;5088383;28;20202;-76
2024/02/06 03:09:54;;;;;;;10.63;7.75;;;10.40;99.90;;;;;;5080990;28;20235;-76
2024/02/06 03:12:31;;;;;;;18.15;8.10;;;10.40;99.90;;;;;;5076837;28;20787;-73
2024/02/06 03:15:00;;;;;;;17.80;8.07;;;10.40;99.90;;;;;;5087909;28;20260;-75
2024/02/06 03:17:27;;;;;;;11.35;9.13;;;10.40;99.90;;;;;;5079027;28;20294;-74
2024/02/06 03:19:54;;;;;;;11.82;6.88;;;10.40;99.90;;;;;;5084398;28;20291;-75
2024/02/06 03:22:22;;;;;;;16.70;8.07;;;10.40;99.90;;;;;;5085533;28;20319;-74
2024/02/06 03:24:50;;;;;;;12.02;7.85;;;10.30;99.90;;;;;;5092448;28;20207;-73
2024/02/06 03:27:17;;;;;;;10.68;7.53;;;10.40;99.90;;;;;;5087118;28;20206;-73
2024/02/06 03:29:44;;;;;;;10.50;7.43;;;10.40;99.90;;;;;;5077899;28;20311;-73
2024/02/06 03:32:12;;;;;;;11.07;8.23;;;10.40;99.90;;;;;;5081977;28;20255;-75
2024/02/06 03:34:39;;;;;;;13.07;7.85;;;10.30;99.90;;;;;;5088836;28;20669;-74
2024/02/06 03:37:06;;;;;;;30.45;10.95;;;10.30;99.90;;;;;;5082734;28;20232;-76
2024/02/06 03:39:33;;;;;;;10.75;7.03;;;10.30;99.90;;;;;;5089231;28;20206;-75
2024/02/06 03:42:00;;;;;;;11.80;7.35;;;10.20;99.90;;;;;;5081568;28;20223;-73
2024/02/06 03:44:27;;;;;;;12.20;7.53;;;10.30;99.90;;;;;;5083709;28;20200;-74
2024/02/06 03:46:54;;;;;;;13.15;8.00;;;10.30;99.90;;;;;;5089533;28;20213;-76
2024/02/06 03:49:23;;;;;;;14.15;8.00;;;10.30;99.90;;;;;;5074822;28;20207;-74
2024/02/06 03:51:50;;;;;;;14.07;7.55;;;10.30;99.90;;;;;;5090890;28;20199;-74
2024/02/06 03:54:17;;;;;;;13.73;7.95;;;10.30;99.90;;;;;;5088668;28;20258;-72
2024/02/06 03:56:44;;;;;;;14.45;9.93;;;10.30;99.90;;;;;;5082319;28;20203;-73
2024/02/06 03:59:11;;;;;;;11.07;8.25;;;10.30;99.90;;;;;;5080419;28;20628;-72
2024/02/06 04:01:39;;;;;;;19.15;9.25;;;10.30;99.90;;;;;;5082951;28;20207;-77
2024/02/06 04:04:06;;;;;;;12.52;8.27;;;10.30;99.90;;;;;;5088373;28;20270;-72
2024/02/06 04:06:34;;;;;;;16.60;8.85;;;10.30;99.90;;;;;;5080573;28;20261;-73
2024/02/06 04:09:01;;;;;;;10.93;8.18;;;10.30;99.90;;;;;;5081280;28;20203;-75
2024/02/06 04:11:28;;;;;;;9.70;7.50;;;10.30;99.90;;;;;;5072287;28;20227;-76
2024/02/06 04:13:55;;;;;;;12.20;7.55;;;10.30;99.90;;;;;;5082169;28;20223;-76
2024/02/06 04:16:22;;;;;;;18.77;8.48;;;10.30;99.90;;;;;;5078161;28;20231;-74
2024/02/06 04:18:49;;;;;;;15.85;8.80;;;10.30;99.90;;;;;;5081866;28;20211;-73
2024/02/06 04:21:17;;;;;;;11.88;9.15;;;10.20;99.90;;;;;;5073004;28;20630;-74
2024/02/06 04:23:46;;;;;;;15.18;9.18;;;10.20;99.90;;;;;;5082638;28;20250;-73
2024/02/06 04:26:13;;;;;;;15.07;9.77;;;10.20;99.90;;;;;;5086452;28;20198;-73
2024/02/06 04:28:40;;;;;;;16.00;10.18;;;10.20;99.90;;;;;;5081770;28;20203;-74
2024/02/06 04:31:07;;;;;;;17.35;9.43;;;10.10;99.90;;;;;;5078977;28;20285;-76
2024/02/06 04:33:34;;;;;;;17.42;9.90;;;10.10;99.90;;;;;;5079086;28;20281;-74
2024/02/06 04:36:01;;;;;;;19.25;9.77;;;10.10;99.90;;;;;;5078658;28;20230;-73
2024/02/06 04:38:29;;;;;;;20.70;8.93;;;10.10;99.90;;;;;;5072328;28;20207;-75
2024/02/06 04:40:57;;;;;;;16.98;9.77;;;10.10;99.90;;;;;;5073497;28;20207;-74
2024/02/06 04:43:24;;;;;;;21.70;9.63;;;10.10;99.90;;;;;;5075053;28;20227;-73
2024/02/06 04:45:51;;;;;;;14.25;9.50;;;10.10;99.90;;;;;;5076831;28;20204;-74
2024/02/06 04:48:18;;;;;;;19.75;10.35;;;10.10;99.90;;;;;;5076530;28;20670;-76
2024/02/06 04:50:45;;;;;;;12.85;9.20;;;10.10;99.90;;;;;;5073874;28;20280;-75
2024/02/06 04:53:12;;;;;;;14.02;9.43;;;10.10;99.90;;;;;;5075551;28;20710;-74
2024/02/06 04:55:39;;;;;;;16.95;8.65;;;10.10;99.90;;;;;;5083840;28;20661;-73
2024/02/06 04:58:07;;;;;;;20.08;11.73;;;10.10;99.90;;;;;;5082536;28;20244;-74
2024/02/06 05:00:34;;;;;;;15.32;9.07;;;10.10;99.90;;;;;;5076550;28;20235;-76
2024/02/06 05:03:01;;;;;;;17.45;10.48;;;10.10;99.90;;;;;;5075946;28;20269;-74
2024/02/06 05:05:28;;;;;;;16.05;10.05;;;10.10;99.90;;;;;;5073833;28;20211;-75
2024/02/06 05:07:56;;;;;;;18.35;11.85;;;10.10;99.90;;;;;;5071927;28;20207;-77
2024/02/06 05:10:23;;;;;;;19.23;11.20;;;10.10;99.90;;;;;;5077887;28;20560;-76
2024/02/06 05:12:50;;;;;;;15.82;12.00;;;10.10;99.90;;;;;;5077370;28;20272;-73
2024/02/06 05:15:18;;;;;;;19.20;12.88;;;10.10;99.90;;;;;;5078349;28;20214;-74
2024/02/06 05:17:46;;;;;;;18.42;11.85;;;10.00;99.90;;;;;;5081148;28;20257;-76
2024/02/06 05:20:13;;;;;;;18.00;10.52;;;10.00;99.90;;;;;;5072903;28;20210;-76
2024/02/06 05:22:40;;;;;;;17.17;13.00;;;10.00;99.90;;;;;;5074405;28;20302;-74
2024/02/06 05:25:08;;;;;;;19.30;11.85;;;10.00;99.90;;;;;;5085035;28;20284;-75
2024/02/06 05:27:35;;;;;;;15.43;12.30;;;10.00;99.90;;;;;;5075334;28;20210;-74
2024/02/06 05:30:04;;;;;;;19.30;13.20;;;9.90;99.90;;;;;;5077554;28;20260;-73
2024/02/06 05:32:35;;;;;;;19.52;12.20;;;9.90;99.90;;;;;;5085169;28;20219;-74
2024/02/06 05:35:02;;;;;;;21.80;14.30;;;9.90;99.90;;;;;;5082466;28;20285;-76
2024/02/06 05:37:29;;;;;;;20.77;12.88;;;9.90;99.90;;;;;;5083471;28;20701;-74
2024/02/06 05:39:56;;;;;;;22.50;13.57;;;9.90;99.90;;;;;;5084392;28;20211;-73
2024/02/06 05:42:24;;;;;;;16.17;12.82;;;9.90;99.90;;;;;;5084175;28;20599;-76
2024/02/06 05:44:51;;;;;;;20.70;13.05;;;9.90;99.90;;;;;;5090597;28;20201;-74
2024/02/06 05:47:18;;;;;;;16.42;12.32;;;9.90;99.90;;;;;;5093420;28;20245;-76
2024/02/06 05:49:46;;;;;;;18.92;12.35;;;9.80;99.90;;;;;;5076897;28;20258;-75
2024/02/06 05:52:13;;;;;;;19.50;12.88;;;9.90;99.90;;;;;;5089582;28;20211;-74
2024/02/06 05:54:40;;;;;;;17.58;13.10;;;10.00;99.90;;;;;;5077507;28;20589;-75
2024/02/06 05:57:07;;;;;;;26.10;13.77;;;9.90;99.90;;;;;;5086557;28;20529;-76
2024/02/06 05:59:34;;;;;;;18.77;13.15;;;9.90;99.90;;;;;;5077504;28;20227;-74
2024/02/06 06:02:01;;;;;;;15.25;12.07;;;9.90;99.90;;;;;;5086101;28;20224;-73
2024/02/06 06:04:28;;;;;;;13.88;12.27;;;9.90;99.90;;;;;;5087318;28;20198;-74
2024/02/06 06:06:57;;;;;;;16.67;14.18;;;9.90;99.90;;;;;;5083191;28;20204;-73
2024/02/06 06:09:24;;;;;;;20.05;12.30;;;9.90;99.90;;;;;;5083235;28;20207;-73
2024/02/06 06:11:50;;;;;;;19.58;13.20;;;9.90;99.90;;;;;;5078106;28;20650;-73
2024/02/06 06:14:17;;;;;;;26.20;13.07;;;9.90;99.90;;;;;;5086455;28;20207;-74
2024/02/06 06:16:44;;;;;;;21.67;12.93;;;9.90;99.90;;;;;;5080891;28;20211;-74
2024/02/06 06:19:12;;;;;;;15.75;12.48;;;9.90;99.90;;;;;;5078386;28;20347;-75
2024/02/06 06:21:39;;;;;;;22.05;12.65;;;9.80;99.90;;;;;;5083743;28;20310;-75
2024/02/06 06:24:08;;;;;;;20.95;13.73;;;9.80;99.90;;;;;;5086014;28;20261;-73
2024/02/06 06:26:37;;;;;;;22.10;14.20;;;9.80;99.90;;;;;;5085826;28;20202;-73
2024/02/06 06:29:04;;;;;;;21.05;12.50;;;9.80;99.90;;;;;;5092044;28;20291;-73
2024/02/06 06:31:31;;;;;;;19.27;10.60;;;9.80;99.90;;;;;;5080567;28;20324;-75
2024/02/06 06:33:58;;;;;;;17.95;10.77;;;9.80;99.90;;;;;;5081778;28;20288;-75
2024/02/06 06:36:26;;;;;;;17.70;12.45;;;9.80;99.90;;;;;;5076752;28;20281;-74
2024/02/06 06:38:54;;;;;;;15.93;11.25;;;9.80;99.90;;;;;;5079268;28;20663;-73
2024/02/06 06:41:24;;;;;;;19.60;10.93;;;9.80;99.90;;;;;;5076419;28;20291;-71
2024/02/06 06:43:51;;;;;;;15.35;10.27;;;9.80;99.90;;;;;;5081352;28;20314;-72
2024/02/06 06:46:18;;;;;;;20.20;10.85;;;9.80;99.90;;;;;;5083811;28;20218;-73
2024/02/06 06:48:45;;;;;;;22.90;11.82;;;9.80;99.90;;;;;;5080125;28;20265;-71
2024/02/06 06:51:12;;;;;;;18.85;10.55;;;9.80;99.90;;;;;;5084755;28;20199;-74
2024/02/06 06:53:39;;;;;;;13.63;10.05;;;9.80;99.90;;;;;;5085873;28;20258;-72
2024/02/06 06:56:17;;;;;;;22.08;10.55;;;9.80;99.90;;;;;;5083809;28;20707;-73
2024/02/06 06:58:46;;;;;;;12.65;8.23;;;9.80;99.90;;;;;;5081291;28;20199;-71
2024/02/06 07:01:13;;;;;;;19.58;9.57;;;9.90;99.90;;;;;;5083687;28;20231;-72
2024/02/06 07:03:40;;;;;;;19.95;9.80;;;9.90;99.90;;;;;;5081501;28;20262;-71
2024/02/06 07:06:08;;;;;;;16.88;8.77;;;9.90;99.90;;;;;;5081216;28;20721;-73
2024/02/06 07:08:35;;;;;;;13.07;7.57;;;9.90;99.90;;;;;;5081505;28;20617;-73
2024/02/06 07:11:02;;;;;;;14.45;9.45;;;10.00;99.90;;;;;;5082902;28;20237;-74
2024/02/06 07:13:29;;;;;;;18.83;7.72;;;10.00;99.90;;;;;;5083441;28;20309;-73
2024/02/06 07:15:57;;;;;;;12.55;7.15;;;10.10;99.90;;;;;;5087151;28;20264;-73
2024/02/06 07:18:24;;;;;;;9.05;7.22;;;10.10;99.90;;;;;;5073647;28;20261;-72
2024/02/06 07:20:51;;;;;;;11.10;6.25;;;10.10;99.90;;;;;;5075711;28;20539;-75
2024/02/06 07:23:18;;;;;;;12.43;6.97;;;10.10;99.90;;;;;;5080461;28;20650;-74
2024/02/06 07:25:45;;;;;;;10.95;5.63;;;10.20;99.90;;;;;;5088425;28;20287;-74
2024/02/06 07:28:13;;;;;;;12.50;7.20;;;10.20;99.90;;;;;;5075463;28;20242;-69
2024/02/06 07:30:41;;;;;;;12.13;7.00;;;10.20;99.90;;;;;;5073102;28;20271;-69
2024/02/06 07:33:10;;;;;;;11.52;8.27;;;10.30;99.90;;;;;;5077858;28;20215;-70
2024/02/06 07:35:37;;;;;;;13.43;7.82;;;10.30;99.90;;;;;;5073812;28;20251;-70
2024/02/06 07:38:04;;;;;;;14.45;8.10;;;10.40;99.90;;;;;;5073261;28;20687;-72
2024/02/06 07:40:31;;;;;;;14.75;8.90;;;10.30;99.90;;;;;;5079487;28;20206;-70
2024/02/06 07:43:00;;;;;;;11.00;7.85;;;10.30;99.90;;;;;;5080281;28;20223;-72
2024/02/06 07:45:28;;;;;;;17.42;8.55;;;10.30;99.90;;;;;;5077433;28;20199;-72
2024/02/06 07:47:55;;;;;;;14.88;9.35;;;10.30;99.90;;;;;;5083198;28;20282;-73
2024/02/06 07:50:23;;;;;;;12.50;8.77;;;10.30;99.90;;;;;;5073026;28;20273;-74
2024/02/06 07:52:50;;;;;;;29.92;9.88;;;10.30;99.90;;;;;;5080886;28;20807;-70
2024/02/06 07:55:18;;;;;;;18.55;8.75;;;10.30;99.90;;;;;;5079120;28;20303;-71
2024/02/06 07:57:46;;;;;;;19.13;9.65;;;10.30;99.90;;;;;;5086537;28;20283;-72
2024/02/06 08:00:15;;;;;;;21.65;10.07;;;10.30;99.90;;;;;;5073737;28;20207;-70
2024/02/06 08:02:41;;;;;;;18.50;8.30;;;10.30;99.90;;;;;;5076849;28;20266;-72
2024/02/06 08:05:09;;;;;;;16.05;9.30;;;10.30;99.90;;;;;;5073728;28;20257;-72
2024/02/06 08:07:38;;;;;;;12.65;9.90;;;10.40;99.90;;;;;;5083213;28;20351;-75
2024/02/06 08:10:06;;;;;;;13.27;8.40;;;10.30;99.90;;;;;;5073992;28;20238;-72
2024/02/06 08:12:33;;;;;;;15.48;9.73;;;10.40;99.90;;;;;;5076688;28;20215;-74
2024/02/06 08:15:01;;;;;;;16.67;9.77;;;10.40;99.90;;;;;;5072559;28;20298;-73
2024/02/06 08:17:28;;;;;;;24.60;9.85;;;10.40;99.90;;;;;;5071484;28;20207;-74
2024/02/06 08:19:55;;;;;;;12.45;8.88;;;10.40;99.90;;;;;;5073510;28;20650;-71
2024/02/06 08:22:22;;;;;;;14.75;8.15;;;10.40;99.90;;;;;;5077434;28;20223;-73
2024/02/06 08:24:50;;;;;;;13.43;9.88;;;10.40;99.90;;;;;;5079149;28;20214;-73
2024/02/06 08:27:17;;;;;;;17.48;10.15;;;10.40;99.90;;;;;;5072235;28;20207;-72
2024/02/06 08:29:44;;;;;;;14.93;9.60;;;10.30;99.90;;;;;;5072934;28;20324;-74
2024/02/06 08:32:11;;;;;;;15.73;9.32;;;10.30;99.90;;;;;;5071423;28;20272;-71
2024/02/06 08:34:38;;;;;;;24.23;10.85;;;10.40;99.90;;;;;;5075813;28;20729;-75
2024/02/06 08:37:05;;;;;;;13.88;9.02;;;10.30;99.90;;;;;;5077418;28;20203;-73
2024/02/06 08:39:32;;;;;;;16.90;10.18;;;10.30;99.90;;;;;;5071649;28;20300;-73
2024/02/06 08:42:00;;;;;;;25.08;9.88;;;10.30;99.90;;;;;;5071922;28;20211;-72
2024/02/06 08:44:27;;;;;;;19.10;10.60;;;10.30;99.90;;;;;;5085593;28;20257;-71
2024/02/06 08:46:54;;;;;;;19.70;10.73;;;10.30;99.90;;;;;;5077096;28;20277;-74
2024/02/06 08:49:21;;;;;;;14.60;10.80;;;10.30;99.90;;;;;;5072061;28;20348;-74
2024/02/06 08:51:50;;;;;;;17.90;10.63;;;10.30;99.90;;;;;;5072731;28;20234;-72
2024/02/06 08:54:20;;;;;;;12.55;9.50;;;10.40;99.90;;;;;;5078036;28;20311;-72
2024/02/06 08:56:47;;;;;;;19.83;10.52;;;10.40;99.90;;;;;;5078780;28;20579;-72
2024/02/06 08:59:15;;;;;;;18.02;10.10;;;10.50;99.90;;;;;;5072230;28;20195;-73
2024/02/06 09:01:43;;;;;;;15.55;9.90;;;10.40;99.90;;;;;;5071759;28;20260;-73
2024/02/06 09:04:10;;;;;;;14.73;11.82;;;10.40;99.90;;;;;;5081233;28;20273;-76
2024/02/06 09:06:37;;;;;;;20.27;9.23;;;10.40;99.90;;;;;;5085792;28;20199;-72
2024/02/06 09:09:05;;;;;;;14.00;8.85;;;10.40;99.90;;;;;;5083293;28;20211;-75
2024/02/06 09:11:32;;;;;;;19.45;9.52;;;10.50;99.90;;;;;;5078874;28;20661;-71
2024/02/06 09:13:59;;;;;;;17.27;9.90;;;10.50;99.90;;;;;;5085449;28;20257;-73
2024/02/06 09:16:27;;;;;;;19.80;10.48;;;10.50;99.90;;;;;;5090052;28;20203;-74
2024/02/06 09:18:55;;;;;;;14.68;8.73;;;10.50;99.90;;;;;;5077378;28;20622;-72
2024/02/06 09:21:22;;;;;;;20.73;9.20;;;10.50;99.90;;;;;;5087088;28;20276;-74
2024/02/06 09:23:49;;;;;;;16.33;9.82;;;10.50;99.90;;;;;;5075645;28;20266;-74
2024/02/06 09:26:16;;;;;;;14.77;9.10;;;10.50;99.90;;;;;;5084319;28;20211;-72
2024/02/06 09:28:44;;;;;;;17.67;9.65;;;10.60;99.90;;;;;;5075317;28;20258;-72
2024/02/06 09:31:11;;;;;;;11.30;8.25;;;10.60;99.90;;;;;;5082385;28;20673;-74
2024/02/06 09:33:39;;;;;;;18.35;9.25;;;10.60;99.90;;;;;;5090502;28;20234;-72
2024/02/06 09:36:08;;;;;;;11.45;9.23;;;10.70;99.90;;;;;;5085388;28;20199;-73
2024/02/06 09:38:35;;;;;;;17.60;7.25;;;10.70;99.90;;;;;;5081336;28;20203;-73
2024/02/06 09:41:04;;;;;;;10.60;7.55;;;10.70;99.90;;;;;;5075933;28;20209;-75
2024/02/06 09:43:32;;;;;;;16.00;8.65;;;10.70;99.90;;;;;;5075416;28;20235;-72
2024/02/06 09:46:01;;;;;;;14.10;8.18;;;10.70;99.90;;;;;;5083529;28;20288;-74
2024/02/06 09:48:28;;;;;;;11.80;7.40;;;10.70;99.90;;;;;;5081055;28;20614;-76
2024/02/06 09:50:56;;;;;;;14.05;8.27;;;10.70;99.90;;;;;;5086391;28;20256;-72
2024/02/06 09:53:24;;;;;;;18.85;8.77;;;10.80;99.90;;;;;;5082315;28;20279;-71
2024/02/06 09:55:52;;;;;;;9.98;7.05;;;10.90;99.90;;;;;;5080333;28;20199;-75
2024/02/06 09:58:19;;;;;;;15.10;7.97;;;10.80;99.90;;;;;;5075765;28;20261;-72
2024/02/06 10:00:48;;;;;;;11.07;5.88;;;10.90;99.90;;;;;;5075465;28;20192;-75
2024/02/06 10:03:20;;;;;;;10.57;6.85;;;10.90;99.90;;;;;;5077748;28;20698;-73
2024/02/06 10:05:50;;;;;;;17.73;7.20;;;11.00;99.90;;;;;;5082337;28;20202;-73
2024/02/06 10:08:25;;;;;;;12.07;6.28;;;10.90;99.90;;;;;;5081502;28;20271;-73
2024/02/06 10:10:54;;;;;;;10.63;6.60;;;11.00;99.90;;;;;;5083481;28;20203;-72
2024/02/06 10:13:22;;;;;;;10.15;6.00;;;11.00;99.90;;;;;;5076414;28;20281;-72
2024/02/06 10:15:49;;;;;;;10.80;5.85;;;11.10;99.90;;;;;;5079777;28;20210;-72
2024/02/06 10:18:16;;;;;;;12.75;6.05;;;11.10;99.90;;;;;;5082551;28;20199;-74
2024/02/06 10:20:44;;;;;;;19.38;6.70;;;11.20;99.90;;;;;;5083310;28;20257;-72
2024/02/06 10:23:12;;;;;;;16.45;6.75;;;11.20;99.90;;;;;;5089574;28;20724;-71
2024/02/06 10:25:40;;;;;;;10.27;6.90;;;11.20;99.90;;;;;;5078662;28;20198;-72
2024/02/06 10:28:07;;;;;;;17.60;7.68;;;11.20;99.90;;;;;;5088986;28;20297;-73
2024/02/06 10:30:35;;;;;;;17.60;7.90;;;11.20;99.90;;;;;;5081571;28;20239;-73
2024/02/06 10:33:12;;;;;;;13.60;5.85;;;11.20;99.90;;;;;;5074210;28;20306;-77
2024/02/06 10:35:39;;;;;;;19.83;6.93;;;11.20;99.90;;;;;;5078983;28;20617;-74
2024/02/06 10:38:11;;;;;;;11.07;6.50;;;11.10;99.90;;;;;;5086374;28;20200;-73
2024/02/06 10:40:41;;;;;;;12.35;7.05;;;11.10;99.90;;;;;;5081815;28;20547;-72
2024/02/06 10:43:08;;;;;;;13.63;5.88;;;11.20;99.90;;;;;;5080632;28;20252;-70
2024/02/06 10:45:35;;;;;;;15.70;7.15;;;11.10;99.90;;;;;;5074800;28;20681;-74
2024/02/06 10:48:03;;;;;;;13.43;6.78;;;11.10;99.90;;;;;;5073197;28;20283;-74
2024/02/06 10:50:31;;;;;;;15.88;8.15;;;11.20;99.90;;;;;;5075501;28;20650;-71
2024/02/06 10:52:59;;;;;;;9.85;6.78;;;11.20;99.90;;;;;;5074517;28;20247;-75
2024/02/06 10:55:26;;;;;;;10.38;7.40;;;11.20;99.90;;;;;;5086919;28;20203;-70
2024/02/06 10:58:03;;;;;;;14.07;7.70;;;11.20;99.90;;;;;;5076576;28;20203;-72
2024/02/06 11:00:32;;;;;;;17.45;6.95;;;11.20;99.90;;;;;;5081147;28;20247;-73
2024/02/06 11:02:59;;;;;;;13.88;7.22;;;11.20;99.90;;;;;;5079860;28;20316;-77
2024/02/06 11:05:33;;;;;;;17.85;8.15;;;11.10;99.90;;;;;;5079143;28;20206;-73
2024/02/06 11:08:03;;;;;;;10.45;6.78;;;11.10;99.90;;;;;;5075348;28;20707;-76
2024/02/06 11:10:36;;;;;;;12.30;7.25;;;11.10;99.90;;;;;;5079411;28;20207;-74
2024/02/06 11:13:07;;;;;;;18.58;7.35;;;11.00;99.90;;;;;;5079707;28;20218;-70
2024/02/06 11:15:36;;;;;;;17.27;8.43;;;11.00;99.90;;;;;;5080212;28;20227;-72
2024/02/06 11:18:07;;;;;;;13.70;7.05;;;11.00;99.90;;;;;;5082644;28;20641;-72
2024/02/06 11:20:37;;;;;;;17.05;7.72;;;10.90;99.90;;;;;;5086723;28;20202;-73
2024/02/06 11:23:07;;;;;;;17.85;7.85;;;10.90;99.90;;;;;;5077791;28;20230;-75
2024/02/06 11:25:35;;;;;;;13.35;7.68;;;10.80;99.90;;;;;;5085569;28;20285;-74
2024/02/06 11:28:04;;;;;;;17.60;10.00;;;10.70;99.90;;;;;;5076358;28;20207;-71
2024/02/06 11:30:32;;;;;;;28.92;11.40;;;10.70;99.90;;;;;;5078498;28;20256;-72
2024/02/06 11:33:04;;;;;;;22.40;10.25;;;10.70;99.90;;;;;;5075749;28;20251;-71
2024/02/06 11:35:32;;;;;;;10.05;9.05;;;10.70;99.90;;;;;;5082722;28;20627;-75
2024/02/06 11:37:58;;;;;;;16.45;8.98;;;10.70;99.90;;;;;;5075393;28;20282;-74
2024/02/06 11:40:28;;;;;;;27.65;9.82;;;10.70;99.90;;;;;;5086117;28;20264;-75
2024/02/06 11:43:02;;;;;;;24.95;10.45;;;10.70;99.90;;;;;;5072845;28;20277;-74
2024/02/06 11:45:31;;;;;;;17.70;9.15;;;10.70;99.90;;;;;;5074617;28;20215;-72
2024/02/06 11:48:00;;;;;;;19.95;10.70;;;10.70;99.90;;;;;;5080921;28;20203;-74
2024/02/06 11:50:32;;;;;;;19.35;9.57;;;10.70;99.90;;;;;;5085798;28;20259;-70
2024/02/06 11:53:01;;;;;;;14.75;10.30;;;10.70;99.90;;;;;;5073773;28;20222;-72
2024/02/06 11:55:28;;;;;;;14.98;9.45;;;10.60;99.90;;;;;;5086296;28;20650;-73
2024/02/06 11:57:55;;;;;;;18.55;9.73;;;10.70;99.90;;;;;;5077834;28;20204;-75
2024/02/06 12:00:24;;;;;;;11.82;9.05;;;10.70;99.90;;;;;;5080558;28;20210;-72
2024/02/06 12:02:56;;;;;;;14.77;9.10;;;10.60;99.90;;;;;;5072585;28;20223;-71
2024/02/06 12:05:23;;;;;;;23.52;10.23;;;10.60;99.90;;;;;;5077310;28;20537;-75
2024/02/06 12:07:54;;;;;;;15.18;9.85;;;10.60;99.90;;;;;;5076668;28;20206;-72
2024/02/06 12:10:26;;;;;;;15.40;10.07;;;10.70;99.90;;;;;;5079083;28;20207;-74
2024/02/06 12:12:55;;;;;;;13.35;9.65;;;10.70;99.90;;;;;;5082717;28;20306;-75
2024/02/06 12:15:23;;;;;;;15.38;9.98;;;10.60;99.90;;;;;;5073496;28;20231;-74
2024/02/06 12:17:50;;;;;;;22.42;10.55;;;10.70;99.90;;;;;;5075281;28;20687;-73
2024/02/06 12:20:19;;;;;;;17.35;11.50;;;10.70;99.90;;;;;;5075063;28;20215;-72
2024/02/06 12:22:57;;;;;;;17.85;9.50;;;10.70;99.90;;;;;;5078428;28;20304;-74
2024/02/06 12:25:24;;;;;;;20.38;8.48;;;10.70;99.90;;;;;;5080996;28;20219;-71
2024/02/06 12:27:59;;;;;;;15.40;9.77;;;10.70;99.90;;;;;;5082123;28;20286;-74
2024/02/06 12:30:28;;;;;;;13.98;9.10;;;10.70;99.90;;;;;;5072419;28;20294;-74
2024/02/06 12:32:56;;;;;;;14.50;9.63;;;10.80;99.90;;;;;;5073214;28;20611;-73
2024/02/06 12:35:24;;;;;;;15.60;8.48;;;10.80;99.90;;;;;;5082380;28;20230;-74
2024/02/06 12:37:51;;;;;;;15.95;8.65;;;10.80;99.90;;;;;;5071822;28;20235;-72